sensor_id;sensor_type;location;lat;lon;timestamp;pressure;altitude;pressure_sealevel;temperature;humidity
80798;BME280;70202;52.238;10.680;2024-03-23T00:51:13;99475.59;;;10.48;96.88
80798;BME280;70202;52.238;10.680;2024-03-23T00:54:18;99472.25;;;10.43;96.19
80798;BME280;70202;52.238;10.680;2024-03-23T00:55:18;99472.34;;;10.41;96.30
80798;BME280;70202;52.238;10.680;2024-03-23T00:56:18;99459.19;;;10.32;95.79
80798;BME280;70202;52.238;10.680;2024-03-23T00:57:19;99454.69;;;10.31;96.15
80798;BME280;70202;52.238;10.680;2024-03-23T00:58:19;99379.56;;;9.75;95.73
80798;BME280;70202;52.238;10.680;2024-03-23T00:59:20;99368.03;;;9.70;95.49
80798;BME280;70202;52.238;10.680;2024-03-23T01:00:22;99465.59;;;10.31;95.98
80798;BME280;70202;52.238;10.680;2024-03-23T01:01:22;99429.28;;;10.13;95.17
80798;BME280;70202;52.238;10.680;2024-03-23T01:02:23;99446.91;;;10.23;95.39
80798;BME280;70202;52.238;10.680;2024-03-23T01:03:23;99442.56;;;10.19;95.27
80798;BME280;70202;52.238;10.680;2024-03-23T01:04:23;99449.59;;;10.25;95.42
80798;BME280;70202;52.238;10.680;2024-03-23T01:05:24;99415.91;;;10.09;95.95
80798;BME280;70202;52.238;10.680;2024-03-23T01:06:24;99368.19;;;9.84;95.77
80798;BME280;70202;52.238;10.680;2024-03-23T01:07:25;99427.38;;;10.15;95.35
80798;BME280;70202;52.238;10.680;2024-03-23T01:08:25;99431.69;;;10.19;95.76
80798;BME280;70202;52.238;10.680;2024-03-23T01:09:25;99443.28;;;10.24;95.85
80798;BME280;70202;52.238;10.680;2024-03-23T01:10:26;99441.53;;;10.22;96.00
80798;BME280;70202;52.238;10.680;2024-03-23T01:11:27;99352.50;;;9.72;96.16
80798;BME280;70202;52.238;10.680;2024-03-23T01:12:27;99334.09;;;9.60;96.30
80798;BME280;70202;52.238;10.680;2024-03-23T01:13:28;99371.53;;;9.72;96.50
80798;BME280;70202;52.238;10.680;2024-03-23T01:14:28;99420.41;;;10.10;96.29
80798;BME280;70202;52.238;10.680;2024-03-23T01:15:29;99342.91;;;9.65;96.38
80798;BME280;70202;52.238;10.680;2024-03-23T01:16:29;99371.16;;;9.80;96.50
80798;BME280;70202;52.238;10.680;2024-03-23T01:17:29;99367.41;;;9.82;96.43
80798;BME280;70202;52.238;10.680;2024-03-23T01:18:30;99418.25;;;10.16;97.18
80798;BME280;70202;52.238;10.680;2024-03-23T01:19:30;99373.25;;;9.74;97.01
80798;BME280;70202;52.238;10.680;2024-03-23T01:20:31;99436.72;;;10.29;97.05
80798;BME280;70202;52.238;10.680;2024-03-23T01:21:31;99439.44;;;10.29;97.11
80798;BME280;70202;52.238;10.680;2024-03-23T01:22:32;99351.09;;;9.82;97.18
80798;BME280;70202;52.238;10.680;2024-03-23T01:23:33;99430.38;;;10.28;96.78
80798;BME280;70202;52.238;10.680;2024-03-23T01:24:33;99432.41;;;10.23;97.17
80798;BME280;70202;52.238;10.680;2024-03-23T01:25:33;99329.97;;;9.70;97.27
80798;BME280;70202;52.238;10.680;2024-03-23T01:26:34;99383.50;;;10.04;97.11
80798;BME280;70202;52.238;10.680;2024-03-23T01:27:34;99408.16;;;10.18;96.85
80798;BME280;70202;52.238;10.680;2024-03-23T01:28:34;99389.59;;;10.09;96.97
80798;BME280;70202;52.238;10.680;2024-03-23T01:29:35;99394.78;;;10.14;97.13
80798;BME280;70202;52.238;10.680;2024-03-23T01:30:35;99320.22;;;9.66;96.92
80798;BME280;70202;52.238;10.680;2024-03-23T01:31:36;99364.50;;;9.85;97.15
80798;BME280;70202;52.238;10.680;2024-03-23T01:32:36;99428.59;;;10.27;96.51
80798;BME280;70202;52.238;10.680;2024-03-23T01:33:37;99410.81;;;10.20;96.79
80798;BME280;70202;52.238;10.680;2024-03-23T01:34:37;99414.31;;;10.22;96.60
80798;BME280;70202;52.238;10.680;2024-03-23T01:35:38;99382.69;;;10.02;96.53
80798;BME280;70202;52.238;10.680;2024-03-23T01:36:38;99309.63;;;9.60;96.44
80798;BME280;70202;52.238;10.680;2024-03-23T01:37:39;99412.72;;;10.18;96.00
80798;BME280;70202;52.238;10.680;2024-03-23T01:38:39;99322.78;;;9.69;96.03
80798;BME280;70202;52.238;10.680;2024-03-23T01:39:40;99390.56;;;10.08;96.27
80798;BME280;70202;52.238;10.680;2024-03-23T01:40:40;99323.66;;;9.69;96.04
80798;BME280;70202;52.238;10.680;2024-03-23T01:41:40;99358.78;;;9.91;96.63
80798;BME280;70202;52.238;10.680;2024-03-23T01:42:43;99299.94;;;9.54;97.21
80798;BME280;70202;52.238;10.680;2024-03-23T01:43:55;99403.03;;;10.12;96.88
80798;BME280;70202;52.238;10.680;2024-03-23T01:44:55;99399.69;;;10.07;96.86
80798;BME280;70202;52.238;10.680;2024-03-23T01:45:55;99371.13;;;9.98;96.07
80798;BME280;70202;52.238;10.680;2024-03-23T01:46:56;99301.22;;;9.47;96.25
80798;BME280;70202;52.238;10.680;2024-03-23T01:47:57;99384.25;;;10.08;96.18
80798;BME280;70202;52.238;10.680;2024-03-23T01:48:57;99369.41;;;9.96;96.02
80798;BME280;70202;52.238;10.680;2024-03-23T01:49:57;99197.50;;;9.02;96.02
80798;BME280;70202;52.238;10.680;2024-03-23T01:50:58;99354.22;;;9.92;96.92
80798;BME280;70202;52.238;10.680;2024-03-23T01:51:59;99313.25;;;9.60;97.05
80798;BME280;70202;52.238;10.680;2024-03-23T01:53:02;99381.75;;;10.03;96.99
80798;BME280;70202;52.238;10.680;2024-03-23T01:54:03;99409.28;;;10.14;97.24
80798;BME280;70202;52.238;10.680;2024-03-23T01:55:03;99269.78;;;9.41;96.77
80798;BME280;70202;52.238;10.680;2024-03-23T01:56:05;99389.28;;;10.15;97.40
80798;BME280;70202;52.238;10.680;2024-03-23T01:57:06;99302.53;;;9.57;96.76
80798;BME280;70202;52.238;10.680;2024-03-23T01:58:06;99377.19;;;10.04;96.92
80798;BME280;70202;52.238;10.680;2024-03-23T01:59:07;99395.59;;;10.16;96.93
80798;BME280;70202;52.238;10.680;2024-03-23T02:00:08;99370.53;;;10.09;97.47
80798;BME280;70202;52.238;10.680;2024-03-23T02:01:12;99374.97;;;10.12;97.02
80798;BME280;70202;52.238;10.680;2024-03-23T02:02:12;99379.28;;;10.16;97.54
80798;BME280;70202;52.238;10.680;2024-03-23T02:03:26;99217.88;;;9.11;97.89
80798;BME280;70202;52.238;10.680;2024-03-23T02:04:27;99319.34;;;9.83;96.83
80798;BME280;70202;52.238;10.680;2024-03-23T02:05:27;99373.75;;;10.17;97.56
80798;BME280;70202;52.238;10.680;2024-03-23T02:06:28;99373.66;;;10.19;97.97
80798;BME280;70202;52.238;10.680;2024-03-23T02:07:28;99367.66;;;10.12;97.79
80798;BME280;70202;52.238;10.680;2024-03-23T02:08:30;99285.72;;;9.66;97.89
80798;BME280;70202;52.238;10.680;2024-03-23T02:09:30;99311.72;;;9.72;98.42
80798;BME280;70202;52.238;10.680;2024-03-23T02:10:32;99356.06;;;10.09;97.99
80798;BME280;70202;52.238;10.680;2024-03-23T02:11:32;99363.88;;;10.15;97.97
80798;BME280;70202;52.238;10.680;2024-03-23T02:12:33;99298.78;;;9.77;98.38
80798;BME280;70202;52.238;10.680;2024-03-23T02:13:33;99279.81;;;9.58;98.00
80798;BME280;70202;52.238;10.680;2024-03-23T02:14:34;99357.66;;;10.13;98.35
80798;BME280;70202;52.238;10.680;2024-03-23T02:15:34;99372.72;;;10.20;98.50
80798;BME280;70202;52.238;10.680;2024-03-23T02:16:34;99245.09;;;9.46;98.22
80798;BME280;70202;52.238;10.680;2024-03-23T02:17:35;99370.88;;;10.20;97.59
80798;BME280;70202;52.238;10.680;2024-03-23T02:18:36;99290.84;;;9.72;97.69
80798;BME280;70202;52.238;10.680;2024-03-23T02:19:36;99348.88;;;10.08;98.01
80798;BME280;70202;52.238;10.680;2024-03-23T02:20:37;99352.22;;;10.13;97.75
80798;BME280;70202;52.238;10.680;2024-03-23T02:21:38;99270.69;;;9.59;98.21
80798;BME280;70202;52.238;10.680;2024-03-23T02:22:39;99360.06;;;10.19;98.36
80798;BME280;70202;52.238;10.680;2024-03-23T02:23:39;99362.88;;;10.17;98.12
80798;BME280;70202;52.238;10.680;2024-03-23T02:24:40;99322.84;;;10.02;97.84
80798;BME280;70202;52.238;10.680;2024-03-23T02:25:40;99331.66;;;10.07;97.92
80798;BME280;70202;52.238;10.680;2024-03-23T02:26:40;99322.78;;;10.04;97.91
80798;BME280;70202;52.238;10.680;2024-03-23T02:27:41;99255.03;;;9.64;98.05
80798;BME280;70202;52.238;10.680;2024-03-23T02:28:41;99224.16;;;9.48;98.13
80798;BME280;70202;52.238;10.680;2024-03-23T02:29:42;99321.91;;;10.03;98.34
80798;BME280;70202;52.238;10.680;2024-03-23T02:30:42;99345.75;;;10.15;98.08
80798;BME280;70202;52.238;10.680;2024-03-23T02:31:43;99317.50;;;10.00;98.15
80798;BME280;70202;52.238;10.680;2024-03-23T02:32:43;99264.13;;;9.63;98.22
80798;BME280;70202;52.238;10.680;2024-03-23T02:33:44;99248.53;;;9.49;98.44
80798;BME280;70202;52.238;10.680;2024-03-23T02:34:44;99262.78;;;9.72;97.75
80798;BME280;70202;52.238;10.680;2024-03-23T02:35:45;99337.59;;;10.15;97.66
80798;BME280;70202;52.238;10.680;2024-03-23T02:36:46;99262.28;;;9.64;98.05
80798;BME280;70202;52.238;10.680;2024-03-23T02:37:46;99226.88;;;9.48;97.46
80798;BME280;70202;52.238;10.680;2024-03-23T02:38:48;99330.84;;;10.05;97.38
80798;BME280;70202;52.238;10.680;2024-03-23T02:39:49;99279.50;;;9.82;97.56
80798;BME280;70202;52.238;10.680;2024-03-23T02:40:50;99333.28;;;10.11;97.87
80798;BME280;70202;52.238;10.680;2024-03-23T02:41:50;99202.19;;;9.35;97.38
80798;BME280;70202;52.238;10.680;2024-03-23T02:42:51;99285.59;;;9.87;97.95
80798;BME280;70202;52.238;10.680;2024-03-23T02:43:52;99145.19;;;8.99;97.94
80798;BME280;70202;52.238;10.680;2024-03-23T02:44:53;99206.41;;;9.41;97.85
80798;BME280;70202;52.238;10.680;2024-03-23T02:45:53;99279.31;;;9.85;97.53
80798;BME280;70202;52.238;10.680;2024-03-23T02:46:54;99335.06;;;10.11;97.52
80798;BME280;70202;52.238;10.680;2024-03-23T02:47:54;99307.72;;;9.96;97.99
80798;BME280;70202;52.238;10.680;2024-03-23T02:48:55;99283.00;;;9.84;97.68
80798;BME280;70202;52.238;10.680;2024-03-23T02:49:56;99324.63;;;10.03;98.02
80798;BME280;70202;52.238;10.680;2024-03-23T02:50:57;99319.00;;;10.06;98.02
80798;BME280;70202;52.238;10.680;2024-03-23T02:51:57;99249.91;;;9.58;98.24
80798;BME280;70202;52.238;10.680;2024-03-23T02:52:58;99211.06;;;9.39;97.88
80798;BME280;70202;52.238;10.680;2024-03-23T02:53:58;99324.38;;;10.08;98.46
80798;BME280;70202;52.238;10.680;2024-03-23T02:54:58;99298.06;;;9.91;98.20
80798;BME280;70202;52.238;10.680;2024-03-23T02:55:59;99251.59;;;9.61;98.16
80798;BME280;70202;52.238;10.680;2024-03-23T02:56:59;99317.81;;;9.94;97.96
80798;BME280;70202;52.238;10.680;2024-03-23T02:57:59;99157.16;;;9.12;98.48
80798;BME280;70202;52.238;10.680;2024-03-23T02:59:02;99321.81;;;10.05;98.43
80798;BME280;70202;52.238;10.680;2024-03-23T03:00:03;99296.06;;;9.94;98.04
80798;BME280;70202;52.238;10.680;2024-03-23T03:01:03;99243.59;;;9.58;98.42
80798;BME280;70202;52.238;10.680;2024-03-23T03:02:04;99223.84;;;9.54;98.48
80798;BME280;70202;52.238;10.680;2024-03-23T03:03:05;99228.31;;;9.55;98.33
80798;BME280;70202;52.238;10.680;2024-03-23T03:04:05;99190.50;;;9.33;98.58
80798;BME280;70202;52.238;10.680;2024-03-23T03:05:06;99218.00;;;9.44;97.76
80798;BME280;70202;52.238;10.680;2024-03-23T03:06:06;99322.44;;;10.10;98.23
80798;BME280;70202;52.238;10.680;2024-03-23T03:07:07;99290.63;;;9.94;97.82
80798;BME280;70202;52.238;10.680;2024-03-23T03:08:07;99221.94;;;9.56;97.90
80798;BME280;70202;52.238;10.680;2024-03-23T03:09:07;99265.00;;;9.81;98.04
80798;BME280;70202;52.238;10.680;2024-03-23T03:10:08;99236.00;;;9.64;97.99
80798;BME280;70202;52.238;10.680;2024-03-23T03:11:11;99285.97;;;9.96;98.15
80798;BME280;70202;52.238;10.680;2024-03-23T03:12:11;99313.41;;;10.09;98.11
80798;BME280;70202;52.238;10.680;2024-03-23T03:13:12;99243.00;;;9.68;97.87
80798;BME280;70202;52.238;10.680;2024-03-23T03:14:12;99309.91;;;10.07;97.35
80798;BME280;70202;52.238;10.680;2024-03-23T03:15:13;99250.97;;;9.73;97.33
80798;BME280;70202;52.238;10.680;2024-03-23T03:16:13;99294.84;;;10.00;97.76
80798;BME280;70202;52.238;10.680;2024-03-23T03:17:14;99291.16;;;10.01;97.26
80798;BME280;70202;52.238;10.680;2024-03-23T03:18:15;99280.06;;;9.88;97.37
80798;BME280;70202;52.238;10.680;2024-03-23T03:19:15;99291.41;;;9.96;97.61
80798;BME280;70202;52.238;10.680;2024-03-23T03:20:16;99301.03;;;10.04;97.86
80798;BME280;70202;52.238;10.680;2024-03-23T03:21:18;99200.59;;;9.48;97.91
80798;BME280;70202;52.238;10.680;2024-03-23T03:22:19;99285.81;;;9.99;97.61
80798;BME280;70202;52.238;10.680;2024-03-23T03:23:20;99263.72;;;9.88;97.15
80798;BME280;70202;52.238;10.680;2024-03-23T03:24:21;99278.63;;;9.98;97.92
80798;BME280;70202;52.238;10.680;2024-03-23T03:25:21;99121.69;;;8.98;97.57
80798;BME280;70202;52.238;10.680;2024-03-23T03:26:22;99291.00;;;10.04;97.56
80798;BME280;70202;52.238;10.680;2024-03-23T03:27:23;99285.66;;;10.02;97.92
80798;BME280;70202;52.238;10.680;2024-03-23T03:28:24;99266.94;;;9.96;97.78
80798;BME280;70202;52.238;10.680;2024-03-23T03:29:26;99281.00;;;10.05;97.94
80798;BME280;70202;52.238;10.680;2024-03-23T03:30:26;99296.44;;;10.04;97.50
80798;BME280;70202;52.238;10.680;2024-03-23T03:31:27;99261.97;;;9.87;97.36
80798;BME280;70202;52.238;10.680;2024-03-23T03:32:30;99257.31;;;9.89;97.87
80798;BME280;70202;52.238;10.680;2024-03-23T03:33:30;99285.66;;;10.02;97.70
80798;BME280;70202;52.238;10.680;2024-03-23T03:34:31;99256.69;;;9.84;97.25
80798;BME280;70202;52.238;10.680;2024-03-23T03:35:31;99277.91;;;9.95;97.72
80798;BME280;70202;52.238;10.680;2024-03-23T03:36:32;99179.47;;;9.36;97.11
80798;BME280;70202;52.238;10.680;2024-03-23T03:37:32;99280.78;;;9.92;97.50
80798;BME280;70202;52.238;10.680;2024-03-23T03:38:33;99282.28;;;9.97;97.77
80798;BME280;70202;52.238;10.680;2024-03-23T03:39:35;99284.13;;;9.97;97.95
80798;BME280;70202;52.238;10.680;2024-03-23T03:40:35;99282.53;;;9.93;97.65
80798;BME280;70202;52.238;10.680;2024-03-23T03:41:36;99291.66;;;9.92;97.78
80798;BME280;70202;52.238;10.680;2024-03-23T03:42:36;99278.69;;;9.97;97.82
80798;BME280;70202;52.238;10.680;2024-03-23T03:43:37;99214.56;;;9.58;97.28
80798;BME280;70202;52.238;10.680;2024-03-23T03:44:38;99288.59;;;9.98;97.30
80798;BME280;70202;52.238;10.680;2024-03-23T03:45:40;99247.19;;;9.75;97.21
80798;BME280;70202;52.238;10.680;2024-03-23T03:46:40;99265.66;;;9.86;97.23
80798;BME280;70202;52.238;10.680;2024-03-23T03:47:40;99196.41;;;9.41;97.24
80798;BME280;70202;52.238;10.680;2024-03-23T03:48:41;99247.13;;;9.77;97.29
80798;BME280;70202;52.238;10.680;2024-03-23T03:49:41;99190.44;;;9.35;97.40
80798;BME280;70202;52.238;10.680;2024-03-23T03:50:41;99270.00;;;9.90;97.50
80798;BME280;70202;52.238;10.680;2024-03-23T03:51:42;99156.78;;;9.20;97.50
80798;BME280;70202;52.238;10.680;2024-03-23T03:52:42;99240.97;;;9.73;97.78
80798;BME280;70202;52.238;10.680;2024-03-23T03:53:43;99224.94;;;9.67;97.43
80798;BME280;70202;52.238;10.680;2024-03-23T03:54:43;99259.41;;;9.84;97.70
80798;BME280;70202;52.238;10.680;2024-03-23T03:55:43;99258.63;;;9.82;97.80
80798;BME280;70202;52.238;10.680;2024-03-23T03:56:44;99186.59;;;9.39;97.45
80798;BME280;70202;52.238;10.680;2024-03-23T03:57:44;99177.72;;;9.35;97.42
80798;BME280;70202;52.238;10.680;2024-03-23T03:58:45;99252.47;;;9.79;97.40
80798;BME280;70202;52.238;10.680;2024-03-23T03:59:45;99257.66;;;9.83;97.44
80798;BME280;70202;52.238;10.680;2024-03-23T04:00:45;99146.47;;;9.09;97.50
80798;BME280;70202;52.238;10.680;2024-03-23T04:01:46;99184.28;;;9.31;97.26
80798;BME280;70202;52.238;10.680;2024-03-23T04:02:46;99165.25;;;9.31;97.45
80798;BME280;70202;52.238;10.680;2024-03-23T04:03:47;99181.06;;;9.40;97.61
80798;BME280;70202;52.238;10.680;2024-03-23T04:04:47;99252.31;;;9.82;97.14
80798;BME280;70202;52.238;10.680;2024-03-23T04:05:54;99216.78;;;9.67;97.62
80798;BME280;70202;52.238;10.680;2024-03-23T04:07:01;99244.16;;;9.82;97.14
80798;BME280;70202;52.238;10.680;2024-03-23T04:08:01;99092.59;;;8.83;97.08
80798;BME280;70202;52.238;10.680;2024-03-23T04:09:02;99223.97;;;9.68;97.21
80798;BME280;70202;52.238;10.680;2024-03-23T04:10:03;99239.75;;;9.79;97.52
80798;BME280;70202;52.238;10.680;2024-03-23T04:11:07;99253.91;;;9.86;97.12
80798;BME280;70202;52.238;10.680;2024-03-23T04:12:07;99268.28;;;9.88;96.91
80798;BME280;70202;52.238;10.680;2024-03-23T04:13:08;99253.09;;;9.84;97.62
80798;BME280;70202;52.238;10.680;2024-03-23T04:14:08;99235.44;;;9.75;97.37
80798;BME280;70202;52.238;10.680;2024-03-23T04:15:09;99231.34;;;9.66;97.40
80798;BME280;70202;52.238;10.680;2024-03-23T04:16:09;99159.19;;;9.26;96.97
80798;BME280;70202;52.238;10.680;2024-03-23T04:17:10;99255.91;;;9.82;97.22
80798;BME280;70202;52.238;10.680;2024-03-23T04:18:10;99251.03;;;9.71;97.05
80798;BME280;70202;52.238;10.680;2024-03-23T04:19:10;99151.34;;;9.20;97.06
80798;BME280;70202;52.238;10.680;2024-03-23T04:20:11;99212.00;;;9.55;97.17
80798;BME280;70202;52.238;10.680;2024-03-23T04:21:13;99212.72;;;9.59;96.44
80798;BME280;70202;52.238;10.680;2024-03-23T04:22:14;99137.50;;;9.07;96.42
80798;BME280;70202;52.238;10.680;2024-03-23T04:23:15;99246.31;;;9.75;97.08
80798;BME280;70202;52.238;10.680;2024-03-23T04:24:15;99233.19;;;9.66;96.43
80798;BME280;70202;52.238;10.680;2024-03-23T04:25:15;99191.81;;;9.43;96.03
80798;BME280;70202;52.238;10.680;2024-03-23T04:26:16;99241.91;;;9.72;96.76
80798;BME280;70202;52.238;10.680;2024-03-23T04:27:16;99159.00;;;9.12;96.26
80798;BME280;70202;52.238;10.680;2024-03-23T04:28:17;99151.09;;;9.07;96.03
80798;BME280;70202;52.238;10.680;2024-03-23T04:29:17;99242.09;;;9.69;96.35
80798;BME280;70202;52.238;10.680;2024-03-23T04:30:18;99190.00;;;9.42;96.56
80798;BME280;70202;52.238;10.680;2024-03-23T04:31:19;99165.50;;;9.09;96.59
80798;BME280;70202;52.238;10.680;2024-03-23T04:32:19;99159.59;;;9.18;96.42
80798;BME280;70202;52.238;10.680;2024-03-23T04:33:20;99243.19;;;9.65;96.68
80798;BME280;70202;52.238;10.680;2024-03-23T04:34:20;99063.28;;;8.55;96.05
80798;BME280;70202;52.238;10.680;2024-03-23T04:35:20;99092.84;;;8.78;95.79
80798;BME280;70202;52.238;10.680;2024-03-23T04:36:22;99217.84;;;9.47;96.26
80798;BME280;70202;52.238;10.680;2024-03-23T04:37:22;99208.97;;;9.44;96.15
80798;BME280;70202;52.238;10.680;2024-03-23T04:38:23;99219.63;;;9.48;95.97
80798;BME280;70202;52.238;10.680;2024-03-23T04:39:24;99153.81;;;9.07;96.38
80798;BME280;70202;52.238;10.680;2024-03-23T04:40:25;99200.41;;;9.34;96.80
80798;BME280;70202;52.238;10.680;2024-03-23T04:41:26;99238.16;;;9.58;96.55
80798;BME280;70202;52.238;10.680;2024-03-23T04:42:27;99139.34;;;8.89;96.69
80798;BME280;70202;52.238;10.680;2024-03-23T04:43:28;99240.00;;;9.57;96.29
80798;BME280;70202;52.238;10.680;2024-03-23T04:44:28;99199.03;;;9.43;96.82
80798;BME280;70202;52.238;10.680;2024-03-23T04:45:29;99165.78;;;9.03;97.24
80798;BME280;70202;52.238;10.680;2024-03-23T04:46:29;99213.53;;;9.43;96.55
80798;BME280;70202;52.238;10.680;2024-03-23T04:47:30;99155.75;;;9.05;97.04
80798;BME280;70202;52.238;10.680;2024-03-23T04:48:30;99144.53;;;8.94;96.49
80798;BME280;70202;52.238;10.680;2024-03-23T04:49:31;99222.34;;;9.48;97.01
80798;BME280;70202;52.238;10.680;2024-03-23T04:50:31;99109.06;;;8.80;96.29
80798;BME280;70202;52.238;10.680;2024-03-23T04:51:37;99206.16;;;9.45;96.45
80798;BME280;70202;52.238;10.680;2024-03-23T04:52:38;99215.28;;;9.44;96.20
80798;BME280;70202;52.238;10.680;2024-03-23T04:53:38;99138.28;;;8.92;96.55
80798;BME280;70202;52.238;10.680;2024-03-23T04:54:39;99155.25;;;8.97;97.11
80798;BME280;70202;52.238;10.680;2024-03-23T04:55:43;99074.16;;;8.55;96.79
80798;BME280;70202;52.238;10.680;2024-03-23T04:56:44;99132.16;;;8.88;96.35
80798;BME280;70202;52.238;10.680;2024-03-23T04:57:44;99226.06;;;9.46;96.84
80798;BME280;70202;52.238;10.680;2024-03-23T04:58:44;99209.22;;;9.39;96.28
80798;BME280;70202;52.238;10.680;2024-03-23T04:59:45;99189.00;;;9.27;96.53
80798;BME280;70202;52.238;10.680;2024-03-23T05:00:45;99234.94;;;9.49;96.82
80798;BME280;70202;52.238;10.680;2024-03-23T05:01:46;99214.47;;;9.42;97.20
80798;BME280;70202;52.238;10.680;2024-03-23T05:02:46;99202.19;;;9.35;97.10
80798;BME280;70202;52.238;10.680;2024-03-23T05:03:46;99221.47;;;9.48;97.30
80798;BME280;70202;52.238;10.680;2024-03-23T05:04:47;99193.78;;;9.22;97.33
80798;BME280;70202;52.238;10.680;2024-03-23T05:05:48;99198.41;;;9.38;97.45
80798;BME280;70202;52.238;10.680;2024-03-23T05:06:48;99123.13;;;8.88;96.85
80798;BME280;70202;52.238;10.680;2024-03-23T05:07:49;99219.53;;;9.50;97.33
80798;BME280;70202;52.238;10.680;2024-03-23T05:08:49;99196.56;;;9.38;96.99
80798;BME280;70202;52.238;10.680;2024-03-23T05:09:50;99176.38;;;9.26;97.27
80798;BME280;70202;52.238;10.680;2024-03-23T05:10:50;99186.13;;;9.31;96.65
80798;BME280;70202;52.238;10.680;2024-03-23T05:11:50;99014.69;;;8.31;96.47
80798;BME280;70202;52.238;10.680;2024-03-23T05:12:51;99141.69;;;8.97;96.81
80798;BME280;70202;52.238;10.680;2024-03-23T05:13:51;99215.13;;;9.47;97.15
80798;BME280;70202;52.238;10.680;2024-03-23T05:14:52;99180.44;;;9.35;97.44
80798;BME280;70202;52.238;10.680;2024-03-23T05:15:56;99181.16;;;9.39;97.06
80798;BME280;70202;52.238;10.680;2024-03-23T05:16:56;99058.03;;;8.69;97.43
80798;BME280;70202;52.238;10.680;2024-03-23T05:17:56;99180.94;;;9.43;97.21
80798;BME280;70202;52.238;10.680;2024-03-23T05:18:57;99189.78;;;9.47;97.55
80798;BME280;70202;52.238;10.680;2024-03-23T05:19:57;99177.78;;;9.34;97.99
80798;BME280;70202;52.238;10.680;2024-03-23T05:20:58;99138.34;;;9.09;97.46
80798;BME280;70202;52.238;10.680;2024-03-23T05:21:59;99193.31;;;9.49;97.46
80798;BME280;70202;52.238;10.680;2024-03-23T05:22:59;99172.06;;;9.40;96.92
80798;BME280;70202;52.238;10.680;2024-03-23T05:24:00;98998.94;;;8.39;97.02
80798;BME280;70202;52.238;10.680;2024-03-23T05:25:01;99131.53;;;9.18;97.27
80798;BME280;70202;52.238;10.680;2024-03-23T05:26:01;99149.09;;;9.28;97.45
80798;BME280;70202;52.238;10.680;2024-03-23T05:27:01;99184.19;;;9.50;97.45
80798;BME280;70202;52.238;10.680;2024-03-23T05:28:02;99135.84;;;9.22;97.42
80798;BME280;70202;52.238;10.680;2024-03-23T05:29:02;99186.03;;;9.49;98.03
80798;BME280;70202;52.238;10.680;2024-03-23T05:30:03;99126.34;;;9.13;97.43
80798;BME280;70202;52.238;10.680;2024-03-23T05:31:06;99195.88;;;9.52;97.00
80798;BME280;70202;52.238;10.680;2024-03-23T05:32:06;99163.97;;;9.38;97.59
80798;BME280;70202;52.238;10.680;2024-03-23T05:33:07;99085.91;;;8.90;96.80
80798;BME280;70202;52.238;10.680;2024-03-23T05:34:08;99119.13;;;8.95;96.89
80798;BME280;70202;52.238;10.680;2024-03-23T05:35:09;99195.88;;;9.52;97.18
80798;BME280;70202;52.238;10.680;2024-03-23T05:36:09;99103.72;;;8.95;96.59
80798;BME280;70202;52.238;10.680;2024-03-23T05:37:12;99177.25;;;9.44;96.27
80798;BME280;70202;52.238;10.680;2024-03-23T05:38:13;99162.31;;;9.36;96.50
80798;BME280;70202;52.238;10.680;2024-03-23T05:39:13;99187.16;;;9.45;96.60
80798;BME280;70202;52.238;10.680;2024-03-23T05:40:16;99198.00;;;9.45;96.30
80798;BME280;70202;52.238;10.680;2024-03-23T05:41:17;99183.06;;;9.37;97.09
80798;BME280;70202;52.238;10.680;2024-03-23T05:42:18;99183.69;;;9.42;96.26
80798;BME280;70202;52.238;10.680;2024-03-23T05:43:18;99110.97;;;8.95;96.23
80798;BME280;70202;52.238;10.680;2024-03-23T05:44:18;99078.72;;;8.71;96.21
80798;BME280;70202;52.238;10.680;2024-03-23T05:45:19;99152.16;;;9.22;96.49
80798;BME280;70202;52.238;10.680;2024-03-23T05:46:19;99176.28;;;9.28;96.70
80798;BME280;70202;52.238;10.680;2024-03-23T05:47:20;99103.31;;;8.86;96.81
80798;BME280;70202;52.238;10.680;2024-03-23T05:48:20;99140.22;;;9.07;96.30
80798;BME280;70202;52.238;10.680;2024-03-23T05:49:21;99183.31;;;9.32;96.49
80798;BME280;70202;52.238;10.680;2024-03-23T05:50:21;99182.69;;;9.27;96.34
80798;BME280;70202;52.238;10.680;2024-03-23T05:51:22;99178.84;;;9.31;96.77
80798;BME280;70202;52.238;10.680;2024-03-23T05:52:22;99070.63;;;8.70;96.48
80798;BME280;70202;52.238;10.680;2024-03-23T05:53:23;99191.22;;;9.37;97.01
80798;BME280;70202;52.238;10.680;2024-03-23T05:54:24;99164.69;;;9.24;96.90
80798;BME280;70202;52.238;10.680;2024-03-23T05:55:24;99147.25;;;9.11;96.01
80798;BME280;70202;52.238;10.680;2024-03-23T05:56:24;99161.97;;;9.24;96.44
80798;BME280;70202;52.238;10.680;2024-03-23T05:57:26;99168.47;;;9.22;96.54
80798;BME280;70202;52.238;10.680;2024-03-23T05:58:26;99189.63;;;9.33;96.72
80798;BME280;70202;52.238;10.680;2024-03-23T05:59:27;99183.47;;;9.29;96.73
80798;BME280;70202;52.238;10.680;2024-03-23T06:00:28;99181.88;;;9.25;96.39
80798;BME280;70202;52.238;10.680;2024-03-23T06:01:28;99087.00;;;8.68;96.64
80798;BME280;70202;52.238;10.680;2024-03-23T06:02:29;99181.88;;;9.25;96.74
80798;BME280;70202;52.238;10.680;2024-03-23T06:03:29;99002.84;;;8.15;96.30
80798;BME280;70202;52.238;10.680;2024-03-23T06:04:30;99172.28;;;9.18;96.10
80798;BME280;70202;52.238;10.680;2024-03-23T06:05:30;99092.13;;;8.74;95.91
80798;BME280;70202;52.238;10.680;2024-03-23T06:06:31;99183.84;;;9.21;96.24
80798;BME280;70202;52.238;10.680;2024-03-23T06:07:31;99179.38;;;9.20;96.11
80798;BME280;70202;52.238;10.680;2024-03-23T06:08:32;99186.50;;;9.23;96.14
80798;BME280;70202;52.238;10.680;2024-03-23T06:09:32;99082.84;;;8.61;95.41
80798;BME280;70202;52.238;10.680;2024-03-23T06:10:32;99138.00;;;8.98;95.78
80798;BME280;70202;52.238;10.680;2024-03-23T06:11:33;99150.59;;;8.99;96.06
80798;BME280;70202;52.238;10.680;2024-03-23T06:12:33;99180.81;;;9.10;95.53
80798;BME280;70202;52.238;10.680;2024-03-23T06:13:34;99186.31;;;9.09;95.46